sensor_id;sensor_type;location;lat;lon;timestamp;temperature;humidity
37560;DHT22;23398;50.928;7.084;2023-04-03T00:01:28;6.60;67.70
37560;DHT22;23398;50.928;7.084;2023-04-03T00:03:53;6.60;68.10
37560;DHT22;23398;50.928;7.084;2023-04-03T00:06:20;6.50;69.10
37560;DHT22;23398;50.928;7.084;2023-04-03T00:08:46;6.50;68.40
37560;DHT22;23398;50.928;7.084;2023-04-03T00:11:11;6.50;68.50
37560;DHT22;23398;50.928;7.084;2023-04-03T00:13:38;6.60;68.50
37560;DHT22;23398;50.928;7.084;2023-04-03T00:16:04;6.60;68.20
37560;DHT22;23398;50.928;7.084;2023-04-03T00:18:30;6.60;68.10
37560;DHT22;23398;50.928;7.084;2023-04-03T00:20:56;6.60;68.00
37560;DHT22;23398;50.928;7.084;2023-04-03T00:23:22;6.60;67.80
37560;DHT22;23398;50.928;7.084;2023-04-03T00:25:49;6.60;67.60
37560;DHT22;23398;50.928;7.084;2023-04-03T00:28:15;6.60;67.50
37560;DHT22;23398;50.928;7.084;2023-04-03T00:30:41;6.50;67.50
37560;DHT22;23398;50.928;7.084;2023-04-03T00:33:07;6.50;67.60
37560;DHT22;23398;50.928;7.084;2023-04-03T00:35:35;6.60;67.70
37560;DHT22;23398;50.928;7.084;2023-04-03T00:38:00;6.50;68.30
37560;DHT22;23398;50.928;7.084;2023-04-03T00:40:27;6.50;67.50
37560;DHT22;23398;50.928;7.084;2023-04-03T00:42:58;6.50;67.50
37560;DHT22;23398;50.928;7.084;2023-04-03T00:47:58;6.50;67.60
37560;DHT22;23398;50.928;7.084;2023-04-03T00:50:27;6.40;67.40
37560;DHT22;23398;50.928;7.084;2023-04-03T00:52:54;6.40;67.50
37560;DHT22;23398;50.928;7.084;2023-04-03T00:55:19;6.40;67.50
37560;DHT22;23398;50.928;7.084;2023-04-03T00:57:46;6.30;67.50
37560;DHT22;23398;50.928;7.084;2023-04-03T01:00:16;6.30;67.50
37560;DHT22;23398;50.928;7.084;2023-04-03T01:02:42;6.20;67.40
37560;DHT22;23398;50.928;7.084;2023-04-03T01:05:08;6.20;67.30
37560;DHT22;23398;50.928;7.084;2023-04-03T01:07:35;6.10;67.20
37560;DHT22;23398;50.928;7.084;2023-04-03T01:10:06;6.10;67.60
37560;DHT22;23398;50.928;7.084;2023-04-03T01:12:38;6.10;68.10
37560;DHT22;23398;50.928;7.084;2023-04-03T01:15:11;6.00;68.00
37560;DHT22;23398;50.928;7.084;2023-04-03T01:20:34;5.90;67.80
37560;DHT22;23398;50.928;7.084;2023-04-03T01:23:37;5.80;68.00
37560;DHT22;23398;50.928;7.084;2023-04-03T01:26:04;5.80;68.30
37560;DHT22;23398;50.928;7.084;2023-04-03T01:28:32;5.80;68.20
37560;DHT22;23398;50.928;7.084;2023-04-03T01:33:37;5.60;69.20
37560;DHT22;23398;50.928;7.084;2023-04-03T01:36:03;5.60;69.20
37560;DHT22;23398;50.928;7.084;2023-04-03T01:38:30;5.50;69.50
37560;DHT22;23398;50.928;7.084;2023-04-03T01:40:55;5.50;69.60
37560;DHT22;23398;50.928;7.084;2023-04-03T01:43:21;5.40;69.50
37560;DHT22;23398;50.928;7.084;2023-04-03T01:45:47;5.30;69.60
37560;DHT22;23398;50.928;7.084;2023-04-03T01:48:14;5.30;69.90
37560;DHT22;23398;50.928;7.084;2023-04-03T01:50:40;5.20;70.10
37560;DHT22;23398;50.928;7.084;2023-04-03T01:53:06;5.20;70.10
37560;DHT22;23398;50.928;7.084;2023-04-03T01:55:32;5.10;70.10
37560;DHT22;23398;50.928;7.084;2023-04-03T01:57:58;5.00;70.20
37560;DHT22;23398;50.928;7.084;2023-04-03T02:00:23;5.00;71.00
37560;DHT22;23398;50.928;7.084;2023-04-03T02:02:49;4.90;70.40
37560;DHT22;23398;50.928;7.084;2023-04-03T02:05:15;4.80;70.40
37560;DHT22;23398;50.928;7.084;2023-04-03T02:07:40;4.80;70.50
37560;DHT22;23398;50.928;7.084;2023-04-03T02:10:06;4.70;70.40
37560;DHT22;23398;50.928;7.084;2023-04-03T02:12:32;4.70;70.70
37560;DHT22;23398;50.928;7.084;2023-04-03T02:14:57;4.60;70.60
37560;DHT22;23398;50.928;7.084;2023-04-03T02:17:23;4.60;70.80
37560;DHT22;23398;50.928;7.084;2023-04-03T02:19:49;4.60;70.90
37560;DHT22;23398;50.928;7.084;2023-04-03T02:22:14;4.50;70.90
37560;DHT22;23398;50.928;7.084;2023-04-03T02:24:40;4.50;71.00
37560;DHT22;23398;50.928;7.084;2023-04-03T02:27:06;4.40;70.90
37560;DHT22;23398;50.928;7.084;2023-04-03T02:29:32;4.40;70.90
37560;DHT22;23398;50.928;7.084;2023-04-03T02:31:58;4.40;71.30
37560;DHT22;23398;50.928;7.084;2023-04-03T02:34:23;4.30;71.50
37560;DHT22;23398;50.928;7.084;2023-04-03T02:36:49;4.30;71.70
37560;DHT22;23398;50.928;7.084;2023-04-03T02:39:14;4.20;72.00
37560;DHT22;23398;50.928;7.084;2023-04-03T02:41:40;4.20;72.10
37560;DHT22;23398;50.928;7.084;2023-04-03T02:44:06;4.20;72.40
37560;DHT22;23398;50.928;7.084;2023-04-03T02:46:33;4.10;72.40
37560;DHT22;23398;50.928;7.084;2023-04-03T02:48:58;4.10;72.50
37560;DHT22;23398;50.928;7.084;2023-04-03T02:51:25;4.00;72.50
37560;DHT22;23398;50.928;7.084;2023-04-03T02:53:50;4.00;72.60
37560;DHT22;23398;50.928;7.084;2023-04-03T02:56:16;3.90;72.50
37560;DHT22;23398;50.928;7.084;2023-04-03T02:58:44;3.90;72.60
37560;DHT22;23398;50.928;7.084;2023-04-03T03:01:10;3.90;72.90
37560;DHT22;23398;50.928;7.084;2023-04-03T03:03:35;3.80;72.90
37560;DHT22;23398;50.928;7.084;2023-04-03T03:06:09;3.80;73.00
37560;DHT22;23398;50.928;7.084;2023-04-03T03:08:35;3.70;73.00
37560;DHT22;23398;50.928;7.084;2023-04-03T03:11:02;3.80;73.10
37560;DHT22;23398;50.928;7.084;2023-04-03T03:13:28;3.70;73.00
37560;DHT22;23398;50.928;7.084;2023-04-03T03:15:53;3.70;73.00
37560;DHT22;23398;50.928;7.084;2023-04-03T03:18:19;3.70;73.00
37560;DHT22;23398;50.928;7.084;2023-04-03T03:20:45;3.70;73.10
37560;DHT22;23398;50.928;7.084;2023-04-03T03:23:10;3.70;73.30
37560;DHT22;23398;50.928;7.084;2023-04-03T03:25:40;3.70;73.40
37560;DHT22;23398;50.928;7.084;2023-04-03T03:28:06;3.70;73.50
37560;DHT22;23398;50.928;7.084;2023-04-03T03:30:32;3.80;73.40
37560;DHT22;23398;50.928;7.084;2023-04-03T03:32:57;3.80;73.10
37560;DHT22;23398;50.928;7.084;2023-04-03T03:35:23;3.80;73.00
37560;DHT22;23398;50.928;7.084;2023-04-03T03:37:49;3.80;72.80
37560;DHT22;23398;50.928;7.084;2023-04-03T03:40:15;3.80;72.70
37560;DHT22;23398;50.928;7.084;2023-04-03T03:42:40;3.80;72.50
37560;DHT22;23398;50.928;7.084;2023-04-03T03:45:06;3.80;72.60
37560;DHT22;23398;50.928;7.084;2023-04-03T03:47:32;3.80;72.60
37560;DHT22;23398;50.928;7.084;2023-04-03T03:49:58;3.90;72.70
37560;DHT22;23398;50.928;7.084;2023-04-03T03:52:23;3.90;72.90
37560;DHT22;23398;50.928;7.084;2023-04-03T03:54:49;3.90;72.80
37560;DHT22;23398;50.928;7.084;2023-04-03T03:57:14;3.90;72.60
37560;DHT22;23398;50.928;7.084;2023-04-03T03:59:40;4.00;72.50
37560;DHT22;23398;50.928;7.084;2023-04-03T04:02:07;4.00;72.30
37560;DHT22;23398;50.928;7.084;2023-04-03T04:04:32;4.00;72.30
37560;DHT22;23398;50.928;7.084;2023-04-03T04:06:58;4.00;72.20
37560;DHT22;23398;50.928;7.084;2023-04-03T04:09:26;4.00;72.10
37560;DHT22;23398;50.928;7.084;2023-04-03T04:11:52;4.00;71.90
37560;DHT22;23398;50.928;7.084;2023-04-03T04:14:17;4.00;72.00
37560;DHT22;23398;50.928;7.084;2023-04-03T04:16:43;4.10;72.20
37560;DHT22;23398;50.928;7.084;2023-04-03T04:19:09;4.10;72.10
37560;DHT22;23398;50.928;7.084;2023-04-03T04:21:35;4.10;72.00
37560;DHT22;23398;50.928;7.084;2023-04-03T04:24:01;4.10;71.90
37560;DHT22;23398;50.928;7.084;2023-04-03T04:26:26;4.10;72.00
37560;DHT22;23398;50.928;7.084;2023-04-03T04:28:52;4.10;71.90
37560;DHT22;23398;50.928;7.084;2023-04-03T04:31:17;4.10;71.70
37560;DHT22;23398;50.928;7.084;2023-04-03T04:33:43;4.10;71.50
37560;DHT22;23398;50.928;7.084;2023-04-03T04:36:08;4.10;71.40
37560;DHT22;23398;50.928;7.084;2023-04-03T04:38:34;4.20;71.60
37560;DHT22;23398;50.928;7.084;2023-04-03T04:40:59;4.20;71.60
37560;DHT22;23398;50.928;7.084;2023-04-03T04:43:25;4.10;71.50
37560;DHT22;23398;50.928;7.084;2023-04-03T04:46:04;4.20;71.60
37560;DHT22;23398;50.928;7.084;2023-04-03T04:48:30;4.20;71.60
37560;DHT22;23398;50.928;7.084;2023-04-03T04:50:55;4.20;71.30
37560;DHT22;23398;50.928;7.084;2023-04-03T04:53:21;4.20;71.30
37560;DHT22;23398;50.928;7.084;2023-04-03T04:55:47;4.20;71.30
37560;DHT22;23398;50.928;7.084;2023-04-03T04:58:13;4.20;71.20
37560;DHT22;23398;50.928;7.084;2023-04-03T05:00:38;4.10;71.20
37560;DHT22;23398;50.928;7.084;2023-04-03T05:03:04;4.10;71.30
37560;DHT22;23398;50.928;7.084;2023-04-03T05:05:29;4.10;71.30
37560;DHT22;23398;50.928;7.084;2023-04-03T05:07:55;4.10;71.30
37560;DHT22;23398;50.928;7.084;2023-04-03T05:10:21;4.10;71.40
37560;DHT22;23398;50.928;7.084;2023-04-03T05:12:46;4.10;71.20
37560;DHT22;23398;50.928;7.084;2023-04-03T05:15:12;4.10;71.20
37560;DHT22;23398;50.928;7.084;2023-04-03T05:17:37;4.10;71.20
37560;DHT22;23398;50.928;7.084;2023-04-03T05:20:04;4.10;71.30
37560;DHT22;23398;50.928;7.084;2023-04-03T05:22:30;4.10;71.40
37560;DHT22;23398;50.928;7.084;2023-04-03T05:24:56;4.10;71.40
37560;DHT22;23398;50.928;7.084;2023-04-03T05:27:21;4.10;71.50
37560;DHT22;23398;50.928;7.084;2023-04-03T05:29:49;4.10;71.60
37560;DHT22;23398;50.928;7.084;2023-04-03T05:32:15;4.10;71.60
37560;DHT22;23398;50.928;7.084;2023-04-03T05:34:41;4.10;71.70
37560;DHT22;23398;50.928;7.084;2023-04-03T05:37:06;4.10;71.90
37560;DHT22;23398;50.928;7.084;2023-04-03T05:39:32;4.10;71.90
37560;DHT22;23398;50.928;7.084;2023-04-03T05:41:58;4.10;71.90
37560;DHT22;23398;50.928;7.084;2023-04-03T05:44:24;4.10;72.00
37560;DHT22;23398;50.928;7.084;2023-04-03T05:46:49;4.10;72.10
37560;DHT22;23398;50.928;7.084;2023-04-03T05:49:15;4.20;72.20
37560;DHT22;23398;50.928;7.084;2023-04-03T05:51:40;4.20;72.30
37560;DHT22;23398;50.928;7.084;2023-04-03T05:54:13;4.20;72.10
37560;DHT22;23398;50.928;7.084;2023-04-03T05:56:41;4.30;72.30
37560;DHT22;23398;50.928;7.084;2023-04-03T05:59:06;4.30;72.20
37560;DHT22;23398;50.928;7.084;2023-04-03T06:01:33;4.30;72.20
37560;DHT22;23398;50.928;7.084;2023-04-03T06:03:59;4.30;72.50
37560;DHT22;23398;50.928;7.084;2023-04-03T06:06:25;4.40;72.60
37560;DHT22;23398;50.928;7.084;2023-04-03T06:08:51;4.40;72.60
37560;DHT22;23398;50.928;7.084;2023-04-03T06:11:17;4.50;72.70
37560;DHT22;23398;50.928;7.084;2023-04-03T06:13:42;4.60;72.50
37560;DHT22;23398;50.928;7.084;2023-04-03T06:16:15;4.60;72.30
37560;DHT22;23398;50.928;7.084;2023-04-03T06:18:42;4.70;72.40
37560;DHT22;23398;50.928;7.084;2023-04-03T06:21:08;4.80;72.40
37560;DHT22;23398;50.928;7.084;2023-04-03T06:23:33;4.80;72.20
37560;DHT22;23398;50.928;7.084;2023-04-03T06:25:59;4.90;72.10
37560;DHT22;23398;50.928;7.084;2023-04-03T06:28:25;5.00;71.80
37560;DHT22;23398;50.928;7.084;2023-04-03T06:30:51;5.10;71.70
37560;DHT22;23398;50.928;7.084;2023-04-03T06:33:17;5.10;71.50
37560;DHT22;23398;50.928;7.084;2023-04-03T06:35:42;5.20;71.40
37560;DHT22;23398;50.928;7.084;2023-04-03T06:38:08;5.30;71.30
37560;DHT22;23398;50.928;7.084;2023-04-03T06:40:35;5.40;71.00
37560;DHT22;23398;50.928;7.084;2023-04-03T06:43:00;5.50;70.70
37560;DHT22;23398;50.928;7.084;2023-04-03T06:45:26;5.60;70.50
37560;DHT22;23398;50.928;7.084;2023-04-03T06:47:53;5.70;70.30
37560;DHT22;23398;50.928;7.084;2023-04-03T06:50:18;5.80;70.10
37560;DHT22;23398;50.928;7.084;2023-04-03T06:52:44;5.90;69.90
37560;DHT22;23398;50.928;7.084;2023-04-03T06:55:10;6.00;70.00
37560;DHT22;23398;50.928;7.084;2023-04-03T06:57:36;6.20;71.60
37560;DHT22;23398;50.928;7.084;2023-04-03T07:00:03;6.50;74.90
37560;DHT22;23398;50.928;7.084;2023-04-03T07:02:29;7.10;78.10
37560;DHT22;23398;50.928;7.084;2023-04-03T07:04:55;7.90;79.80
37560;DHT22;23398;50.928;7.084;2023-04-03T07:07:20;8.80;79.00
37560;DHT22;23398;50.928;7.084;2023-04-03T07:09:46;9.70;78.30
37560;DHT22;23398;50.928;7.084;2023-04-03T07:12:13;10.80;76.40
37560;DHT22;23398;50.928;7.084;2023-04-03T07:14:39;11.90;74.70
37560;DHT22;23398;50.928;7.084;2023-04-03T07:17:04;12.90;72.60
37560;DHT22;23398;50.928;7.084;2023-04-03T07:19:30;14.00;68.50
37560;DHT22;23398;50.928;7.084;2023-04-03T07:21:56;14.90;65.80
37560;DHT22;23398;50.928;7.084;2023-04-03T07:24:22;15.70;63.10
37560;DHT22;23398;50.928;7.084;2023-04-03T07:26:52;16.40;59.90
37560;DHT22;23398;50.928;7.084;2023-04-03T07:29:18;17.10;58.80
37560;DHT22;23398;50.928;7.084;2023-04-03T07:31:44;17.70;57.20
37560;DHT22;23398;50.928;7.084;2023-04-03T07:34:10;18.20;56.00
37560;DHT22;23398;50.928;7.084;2023-04-03T07:36:36;18.80;54.90
37560;DHT22;23398;50.928;7.084;2023-04-03T07:39:03;19.20;53.60
37560;DHT22;23398;50.928;7.084;2023-04-03T07:41:28;19.60;52.90
37560;DHT22;23398;50.928;7.084;2023-04-03T07:43:55;20.00;52.30
37560;DHT22;23398;50.928;7.084;2023-04-03T07:46:22;20.30;51.40
37560;DHT22;23398;50.928;7.084;2023-04-03T07:48:47;20.70;50.50
37560;DHT22;23398;50.928;7.084;2023-04-03T07:51:13;21.10;50.40
37560;DHT22;23398;50.928;7.084;2023-04-03T07:53:39;21.50;49.60
37560;DHT22;23398;50.928;7.084;2023-04-03T07:56:04;21.90;49.00
37560;DHT22;23398;50.928;7.084;2023-04-03T07:58:30;22.30;47.20
37560;DHT22;23398;50.928;7.084;2023-04-03T08:00:56;22.60;46.40
37560;DHT22;23398;50.928;7.084;2023-04-03T08:03:22;22.90;45.00
37560;DHT22;23398;50.928;7.084;2023-04-03T08:05:49;23.30;43.50
37560;DHT22;23398;50.928;7.084;2023-04-03T08:08:18;23.60;44.80
37560;DHT22;23398;50.928;7.084;2023-04-03T08:10:49;24.00;44.00
37560;DHT22;23398;50.928;7.084;2023-04-03T08:13:15;24.30;42.80
37560;DHT22;23398;50.928;7.084;2023-04-03T08:15:41;24.60;43.20
37560;DHT22;23398;50.928;7.084;2023-04-03T08:18:07;24.70;41.40
37560;DHT22;23398;50.928;7.084;2023-04-03T08:20:32;24.80;41.60
37560;DHT22;23398;50.928;7.084;2023-04-03T08:22:58;25.00;41.20
37560;DHT22;23398;50.928;7.084;2023-04-03T08:25:23;25.10;39.70
37560;DHT22;23398;50.928;7.084;2023-04-03T08:27:49;25.30;39.80
37560;DHT22;23398;50.928;7.084;2023-04-03T08:30:15;25.60;38.90
37560;DHT22;23398;50.928;7.084;2023-04-03T08:32:41;25.90;38.20
37560;DHT22;23398;50.928;7.084;2023-04-03T08:35:08;26.40;38.60
37560;DHT22;23398;50.928;7.084;2023-04-03T08:37:38;26.80;38.20
37560;DHT22;23398;50.928;7.084;2023-04-03T08:40:11;27.30;38.10
37560;DHT22;23398;50.928;7.084;2023-04-03T08:48:27;28.20;35.70
37560;DHT22;23398;50.928;7.084;2023-04-03T08:51:00;28.30;35.00
37560;DHT22;23398;50.928;7.084;2023-04-03T08:53:30;28.30;35.10
37560;DHT22;23398;50.928;7.084;2023-04-03T08:55:58;28.40;35.80
37560;DHT22;23398;50.928;7.084;2023-04-03T08:58:29;28.70;35.40
37560;DHT22;23398;50.928;7.084;2023-04-03T09:03:41;29.00;31.80
37560;DHT22;23398;50.928;7.084;2023-04-03T09:08:45;29.30;30.30
37560;DHT22;23398;50.928;7.084;2023-04-03T09:11:23;29.50;32.50
37560;DHT22;23398;50.928;7.084;2023-04-03T09:16:28;30.00;30.60
37560;DHT22;23398;50.928;7.084;2023-04-03T09:19:20;30.30;30.70
37560;DHT22;23398;50.928;7.084;2023-04-03T09:21:47;30.60;31.10
37560;DHT22;23398;50.928;7.084;2023-04-03T09:24:15;30.80;29.00
37560;DHT22;23398;50.928;7.084;2023-04-03T09:26:58;31.00;29.20
37560;DHT22;23398;50.928;7.084;2023-04-03T09:29:25;31.20;30.10
37560;DHT22;23398;50.928;7.084;2023-04-03T09:31:58;31.40;28.30
37560;DHT22;23398;50.928;7.084;2023-04-03T09:34:32;31.40;29.30
37560;DHT22;23398;50.928;7.084;2023-04-03T09:37:00;31.40;28.50
37560;DHT22;23398;50.928;7.084;2023-04-03T09:39:32;31.20;28.20
37560;DHT22;23398;50.928;7.084;2023-04-03T09:44:37;30.60;27.80
37560;DHT22;23398;50.928;7.084;2023-04-03T09:49:48;29.70;26.90
37560;DHT22;23398;50.928;7.084;2023-04-03T09:52:25;29.20;26.80
37560;DHT22;23398;50.928;7.084;2023-04-03T09:54:51;28.60;28.20
37560;DHT22;23398;50.928;7.084;2023-04-03T09:57:18;28.20;27.50
37560;DHT22;23398;50.928;7.084;2023-04-03T09:59:58;27.70;27.70
37560;DHT22;23398;50.928;7.084;2023-04-03T10:02:40;27.30;28.20
37560;DHT22;23398;50.928;7.084;2023-04-03T10:10:39;26.60;28.00
37560;DHT22;23398;50.928;7.084;2023-04-03T10:13:09;26.40;27.40
37560;DHT22;23398;50.928;7.084;2023-04-03T10:15:44;26.30;27.20
37560;DHT22;23398;50.928;7.084;2023-04-03T10:21:08;26.20;27.40
37560;DHT22;23398;50.928;7.084;2023-04-03T10:23:50;26.20;27.10
37560;DHT22;23398;50.928;7.084;2023-04-03T10:29:21;26.10;27.20
37560;DHT22;23398;50.928;7.084;2023-04-03T10:32:14;26.00;26.80
37560;DHT22;23398;50.928;7.084;2023-04-03T10:34:45;25.80;26.70
37560;DHT22;23398;50.928;7.084;2023-04-03T10:40:02;25.20;25.80
37560;DHT22;23398;50.928;7.084;2023-04-03T10:42:42;24.60;24.90
37560;DHT22;23398;50.928;7.084;2023-04-03T10:45:26;23.90;24.90
37560;DHT22;23398;50.928;7.084;2023-04-03T11:02:29;18.20;27.20
37560;DHT22;23398;50.928;7.084;2023-04-03T11:07:53;16.80;27.70
37560;DHT22;23398;50.928;7.084;2023-04-03T11:10:36;16.30;28.30
37560;DHT22;23398;50.928;7.084;2023-04-03T11:13:13;15.80;29.00
37560;DHT22;23398;50.928;7.084;2023-04-03T11:15:42;15.30;29.40
37560;DHT22;23398;50.928;7.084;2023-04-03T11:21:15;14.70;29.80
37560;DHT22;23398;50.928;7.084;2023-04-03T11:23:41;14.40;30.40
37560;DHT22;23398;50.928;7.084;2023-04-03T11:26:19;14.20;30.40
37560;DHT22;23398;50.928;7.084;2023-04-03T11:28:46;14.00;31.00
37560;DHT22;23398;50.928;7.084;2023-04-03T11:32:07;13.90;31.40
37560;DHT22;23398;50.928;7.084;2023-04-03T11:34:34;13.70;31.10
37560;DHT22;23398;50.928;7.084;2023-04-03T11:37:10;13.60;31.80
37560;DHT22;23398;50.928;7.084;2023-04-03T11:39:38;13.50;32.40
37560;DHT22;23398;50.928;7.084;2023-04-03T11:42:33;13.40;32.90
37560;DHT22;23398;50.928;7.084;2023-04-03T11:45:24;13.30;32.60
37560;DHT22;23398;50.928;7.084;2023-04-03T11:47:54;13.20;32.80
37560;DHT22;23398;50.928;7.084;2023-04-03T11:50:43;13.10;32.90
37560;DHT22;23398;50.928;7.084;2023-04-03T11:55:53;12.90;33.30
37560;DHT22;23398;50.928;7.084;2023-04-03T11:58:26;12.80;32.90
37560;DHT22;23398;50.928;7.084;2023-04-03T12:00:57;12.80;33.40
37560;DHT22;23398;50.928;7.084;2023-04-03T12:13:35;12.70;33.30
37560;DHT22;23398;50.928;7.084;2023-04-03T12:16:03;12.70;32.90
37560;DHT22;23398;50.928;7.084;2023-04-03T12:21:11;12.70;32.90
37560;DHT22;23398;50.928;7.084;2023-04-03T12:24:04;12.80;33.40
37560;DHT22;23398;50.928;7.084;2023-04-03T12:46:52;12.70;33.40
37560;DHT22;23398;50.928;7.084;2023-04-03T12:49:39;12.70;34.00
37560;DHT22;23398;50.928;7.084;2023-04-03T12:52:20;12.70;34.60
37560;DHT22;23398;50.928;7.084;2023-04-03T12:54:48;12.70;34.80
37560;DHT22;23398;50.928;7.084;2023-04-03T12:59:41;12.70;34.30
37560;DHT22;23398;50.928;7.084;2023-04-03T13:02:22;12.70;34.30
37560;DHT22;23398;50.928;7.084;2023-04-03T13:04:49;12.70;34.40
37560;DHT22;23398;50.928;7.084;2023-04-03T13:07:41;12.80;35.00
37560;DHT22;23398;50.928;7.084;2023-04-03T13:12:49;12.80;34.40
37560;DHT22;23398;50.928;7.084;2023-04-03T13:15:22;12.80;35.00
37560;DHT22;23398;50.928;7.084;2023-04-03T13:17:49;12.90;35.40
37560;DHT22;23398;50.928;7.084;2023-04-03T13:22:55;12.90;35.20
37560;DHT22;23398;50.928;7.084;2023-04-03T13:25:23;13.00;35.20
37560;DHT22;23398;50.928;7.084;2023-04-03T13:27:50;13.00;35.90
37560;DHT22;23398;50.928;7.084;2023-04-03T13:30:34;13.00;35.10
37560;DHT22;23398;50.928;7.084;2023-04-03T13:33:03;13.00;34.60
37560;DHT22;23398;50.928;7.084;2023-04-03T13:35:33;13.00;35.30
37560;DHT22;23398;50.928;7.084;2023-04-03T13:38:04;13.00;35.00
37560;DHT22;23398;50.928;7.084;2023-04-03T13:40:31;13.00;35.50
37560;DHT22;23398;50.928;7.084;2023-04-03T13:43:03;13.00;35.40
37560;DHT22;23398;50.928;7.084;2023-04-03T13:45:31;13.00;35.60
37560;DHT22;23398;50.928;7.084;2023-04-03T13:48:18;13.00;35.10
37560;DHT22;23398;50.928;7.084;2023-04-03T13:51:01;13.00;35.50
37560;DHT22;23398;50.928;7.084;2023-04-03T13:53:30;13.00;35.50
37560;DHT22;23398;50.928;7.084;2023-04-03T13:56:08;13.00;35.80
37560;DHT22;23398;50.928;7.084;2023-04-03T13:58:35;13.00;35.40
37560;DHT22;23398;50.928;7.084;2023-04-03T14:03:56;13.00;35.80
37560;DHT22;23398;50.928;7.084;2023-04-03T14:06:23;12.90;35.90
37560;DHT22;23398;50.928;7.084;2023-04-03T14:08:49;12.90;35.90
37560;DHT22;23398;50.928;7.084;2023-04-03T14:11:19;12.90;35.60
37560;DHT22;23398;50.928;7.084;2023-04-03T14:13:46;12.90;35.00
37560;DHT22;23398;50.928;7.084;2023-04-03T14:16:15;12.90;35.60
37560;DHT22;23398;50.928;7.084;2023-04-03T14:18:42;12.90;35.70
37560;DHT22;23398;50.928;7.084;2023-04-03T14:21:11;12.90;35.90
37560;DHT22;23398;50.928;7.084;2023-04-03T14:23:37;12.90;35.70
37560;DHT22;23398;50.928;7.084;2023-04-03T14:26:04;12.90;36.00
37560;DHT22;23398;50.928;7.084;2023-04-03T14:28:31;12.90;35.80
37560;DHT22;23398;50.928;7.084;2023-04-03T14:30:57;12.90;35.50
37560;DHT22;23398;50.928;7.084;2023-04-03T14:33:23;12.90;35.60
37560;DHT22;23398;50.928;7.084;2023-04-03T14:35:49;12.90;35.70
37560;DHT22;23398;50.928;7.084;2023-04-03T14:38:22;12.90;36.10
37560;DHT22;23398;50.928;7.084;2023-04-03T14:40:48;12.90;35.90
37560;DHT22;23398;50.928;7.084;2023-04-03T14:43:14;12.90;35.70
37560;DHT22;23398;50.928;7.084;2023-04-03T14:45:40;13.00;35.80
37560;DHT22;23398;50.928;7.084;2023-04-03T14:48:06;13.00;36.20
37560;DHT22;23398;50.928;7.084;2023-04-03T14:50:35;13.00;36.40
37560;DHT22;23398;50.928;7.084;2023-04-03T14:53:00;13.00;36.10
37560;DHT22;23398;50.928;7.084;2023-04-03T14:55:26;13.00;36.20
37560;DHT22;23398;50.928;7.084;2023-04-03T14:57:53;13.10;36.20
37560;DHT22;23398;50.928;7.084;2023-04-03T15:00:21;12.30;35.30
37560;DHT22;23398;50.928;7.084;2023-04-03T15:02:47;13.10;35.90
37560;DHT22;23398;50.928;7.084;2023-04-03T15:05:14;13.10;36.20
37560;DHT22;23398;50.928;7.084;2023-04-03T15:07:48;13.10;35.90
37560;DHT22;23398;50.928;7.084;2023-04-03T15:10:19;13.10;36.40
37560;DHT22;23398;50.928;7.084;2023-04-03T15:12:46;13.10;36.60
37560;DHT22;23398;50.928;7.084;2023-04-03T15:15:12;13.10;36.70
37560;DHT22;23398;50.928;7.084;2023-04-03T15:17:38;13.10;36.60
37560;DHT22;23398;50.928;7.084;2023-04-03T15:20:13;13.00;36.40
37560;DHT22;23398;50.928;7.084;2023-04-03T15:22:38;13.00;36.40
37560;DHT22;23398;50.928;7.084;2023-04-03T15:25:04;13.00;36.20
37560;DHT22;23398;50.928;7.084;2023-04-03T15:27:30;13.00;36.00
37560;DHT22;23398;50.928;7.084;2023-04-03T15:29:56;13.00;36.30
37560;DHT22;23398;50.928;7.084;2023-04-03T15:32:21;13.00;36.60
37560;DHT22;23398;50.928;7.084;2023-04-03T15:34:47;13.00;36.80
37560;DHT22;23398;50.928;7.084;2023-04-03T15:37:13;13.00;36.90
37560;DHT22;23398;50.928;7.084;2023-04-03T15:39:38;13.00;37.00
37560;DHT22;23398;50.928;7.084;2023-04-03T15:42:04;13.00;37.00
37560;DHT22;23398;50.928;7.084;2023-04-03T15:44:32;13.00;36.90
37560;DHT22;23398;50.928;7.084;2023-04-03T15:46:59;13.00;37.10
37560;DHT22;23398;50.928;7.084;2023-04-03T15:49:25;13.00;37.30
37560;DHT22;23398;50.928;7.084;2023-04-03T15:51:51;12.90;36.80
37560;DHT22;23398;50.928;7.084;2023-04-03T15:54:17;12.90;36.60
37560;DHT22;23398;50.928;7.084;2023-04-03T15:56:43;12.90;37.10
37560;DHT22;23398;50.928;7.084;2023-04-03T15:59:09;12.90;37.00
37560;DHT22;23398;50.928;7.084;2023-04-03T16:01:34;12.90;37.00
37560;DHT22;23398;50.928;7.084;2023-04-03T16:04:01;12.90;37.30
37560;DHT22;23398;50.928;7.084;2023-04-03T16:06:27;12.90;37.20
37560;DHT22;23398;50.928;7.084;2023-04-03T16:08:55;12.90;37.20
37560;DHT22;23398;50.928;7.084;2023-04-03T16:11:24;12.80;37.30
37560;DHT22;23398;50.928;7.084;2023-04-03T16:13:50;12.80;37.40
37560;DHT22;23398;50.928;7.084;2023-04-03T16:16:16;12.80;37.40
37560;DHT22;23398;50.928;7.084;2023-04-03T16:18:41;12.80;37.20
37560;DHT22;23398;50.928;7.084;2023-04-03T16:21:08;12.80;37.30
37560;DHT22;23398;50.928;7.084;2023-04-03T16:23:34;12.80;37.40
37560;DHT22;23398;50.928;7.084;2023-04-03T16:26:00;12.70;37.40
37560;DHT22;23398;50.928;7.084;2023-04-03T16:28:25;12.70;37.70
37560;DHT22;23398;50.928;7.084;2023-04-03T16:30:51;12.70;37.70
37560;DHT22;23398;50.928;7.084;2023-04-03T16:33:17;12.70;37.60
37560;DHT22;23398;50.928;7.084;2023-04-03T16:35:46;12.60;37.80
37560;DHT22;23398;50.928;7.084;2023-04-03T16:38:13;12.60;38.10
37560;DHT22;23398;50.928;7.084;2023-04-03T16:40:39;12.60;37.90
37560;DHT22;23398;50.928;7.084;2023-04-03T16:43:04;12.50;37.30
37560;DHT22;23398;50.928;7.084;2023-04-03T16:45:30;12.50;37.40
37560;DHT22;23398;50.928;7.084;2023-04-03T16:47:56;12.50;37.60
37560;DHT22;23398;50.928;7.084;2023-04-03T16:50:21;12.50;37.50
37560;DHT22;23398;50.928;7.084;2023-04-03T16:52:47;12.50;37.40
37560;DHT22;23398;50.928;7.084;2023-04-03T16:55:12;12.40;37.40
37560;DHT22;23398;50.928;7.084;2023-04-03T16:57:38;12.40;37.40
37560;DHT22;23398;50.928;7.084;2023-04-03T17:00:04;12.40;37.70
37560;DHT22;23398;50.928;7.084;2023-04-03T17:02:30;12.30;37.80
37560;DHT22;23398;50.928;7.084;2023-04-03T17:04:56;12.30;37.60
37560;DHT22;23398;50.928;7.084;2023-04-03T17:07:23;12.30;37.70
37560;DHT22;23398;50.928;7.084;2023-04-03T17:09:49;12.30;37.80
37560;DHT22;23398;50.928;7.084;2023-04-03T17:12:15;12.20;37.50
37560;DHT22;23398;50.928;7.084;2023-04-03T17:14:42;12.20;37.50
37560;DHT22;23398;50.928;7.084;2023-04-03T17:17:08;12.20;37.60
37560;DHT22;23398;50.928;7.084;2023-04-03T17:19:35;12.10;37.70
37560;DHT22;23398;50.928;7.084;2023-04-03T17:22:02;12.10;37.70
37560;DHT22;23398;50.928;7.084;2023-04-03T17:24:28;12.10;37.80
37560;DHT22;23398;50.928;7.084;2023-04-03T17:26:54;12.00;37.80
37560;DHT22;23398;50.928;7.084;2023-04-03T17:29:19;12.00;38.00
37560;DHT22;23398;50.928;7.084;2023-04-03T17:31:45;12.00;38.00